createdAt,value
2022-12-24T00:02:23.055Z,95549.47
2022-12-24T00:05:19.970Z,95557.28
2022-12-24T00:08:16.829Z,95566.56
2022-12-24T00:11:13.734Z,95571.41
2022-12-24T00:14:10.570Z,95567.03
2022-12-24T00:17:07.560Z,95571.25
2022-12-24T00:20:05.105Z,95575.16
2022-12-24T00:23:01.982Z,95566.88
2022-12-24T00:25:58.812Z,95574.06
2022-12-24T00:28:55.951Z,95562.78
2022-12-24T00:31:52.807Z,95557.59
2022-12-24T00:34:49.629Z,95563.91
2022-12-24T00:37:50.241Z,95557.25
2022-12-24T00:40:47.426Z,95557.88
2022-12-24T00:43:44.269Z,95560.38
2022-12-24T00:46:42.320Z,95575.75
2022-12-24T00:49:39.313Z,95585.63
2022-12-24T00:52:36.212Z,95588.28
2022-12-24T00:55:33.554Z,95585.94
2022-12-24T00:58:30.377Z,95584.53
2022-12-24T01:01:28.134Z,95591.44
2022-12-24T01:04:43.406Z,95594.41
2022-12-24T01:07:44.432Z,95602.09
2022-12-24T01:10:41.434Z,95615.41
2022-12-24T01:13:39.284Z,95620.91
2022-12-24T01:16:36.250Z,95626.06
2022-12-24T01:19:34.037Z,95637.06
2022-12-24T01:22:30.885Z,95648.13
2022-12-24T01:25:28.238Z,95643.91
2022-12-24T01:28:25.103Z,95650.22
2022-12-24T01:31:21.973Z,95651.59
2022-12-24T01:34:18.843Z,95650.34
2022-12-24T01:37:15.695Z,95650.22
2022-12-24T01:40:35.693Z,95661.19
2022-12-24T01:43:33.780Z,95660.25
2022-12-24T01:46:32.654Z,95666.31
2022-12-24T01:49:30.511Z,95665.06
2022-12-24T01:52:35.282Z,95669.72
2022-12-24T01:55:32.325Z,95669.59
2022-12-24T01:58:29.493Z,95679.91
2022-12-24T02:01:26.810Z,95677.53
2022-12-24T02:04:42.684Z,95678.63
2022-12-24T02:07:39.784Z,95680.16
2022-12-24T02:10:36.697Z,95687.72
2022-12-24T02:13:33.583Z,95696.13
2022-12-24T02:17:17.275Z,95693.34
2022-12-24T02:20:48.047Z,95700.44
2022-12-24T02:24:33.801Z,95704.81
2022-12-24T02:27:50.033Z,95702.09
2022-12-24T02:30:56.990Z,95713.38
2022-12-24T02:34:16.470Z,95717.56
2022-12-24T02:37:37.211Z,95727.66
2022-12-24T02:40:45.203Z,95732.53
2022-12-24T02:43:46.233Z,95739.16
2022-12-24T02:46:43.220Z,95735.59
2022-12-24T02:49:45.903Z,95742.47
2022-12-24T02:52:46.458Z,95748.81
2022-12-24T02:56:02.078Z,95756.47
2022-12-24T02:59:35.492Z,95747.25
2022-12-24T03:03:07.583Z,95759.69
2022-12-24T03:07:01.013Z,95764.88
2022-12-24T03:10:24.069Z,95767.16
2022-12-24T03:13:22.812Z,95763.50
2022-12-24T03:16:25.983Z,95762.97
2022-12-24T03:19:26.214Z,95775.63
2022-12-24T03:22:25.152Z,95772.34
2022-12-24T03:25:25.571Z,95788.69
2022-12-24T03:28:27.089Z,95773.97
2022-12-24T03:31:24.171Z,95798.03
2022-12-24T03:34:21.147Z,95787.56
2022-12-24T03:37:17.994Z,95791.44
2022-12-24T03:40:14.956Z,95799.50
2022-12-24T03:43:11.813Z,95792.66
2022-12-24T03:46:09.208Z,95793.78
2022-12-24T03:49:06.260Z,95812.16
2022-12-24T03:52:03.204Z,95808.63
2022-12-24T03:55:00.045Z,95809.97
2022-12-24T03:57:56.899Z,95810.97
2022-12-24T04:00:54.249Z,95819.47
2022-12-24T04:03:51.164Z,95821.44
2022-12-24T04:06:47.988Z,95831.00
2022-12-24T04:09:45.795Z,95836.63
2022-12-24T04:12:42.802Z,95842.53
2022-12-24T04:15:39.647Z,95848.16
2022-12-24T04:18:38.047Z,95840.84
2022-12-24T04:21:34.857Z,95858.91
2022-12-24T04:24:31.688Z,95845.88
2022-12-24T04:27:30.769Z,95849.34
2022-12-24T04:30:27.719Z,95842.94
2022-12-24T04:33:24.563Z,95839.59
2022-12-24T04:36:21.711Z,95839.16
2022-12-24T04:39:18.575Z,95840.22
2022-12-24T04:42:15.436Z,95844.19
2022-12-24T04:45:12.292Z,95859.16
2022-12-24T04:48:09.150Z,95859.97
2022-12-24T04:51:07.774Z,95870.94
2022-12-24T04:54:04.658Z,95876.34
2022-12-24T04:57:01.510Z,95885.38
2022-12-24T04:59:58.328Z,95893.16
2022-12-24T05:02:55.248Z,95885.81
2022-12-24T05:05:57.920Z,95888.94
2022-12-24T05:08:59.672Z,95898.09
2022-12-24T05:11:56.477Z,95909.84
2022-12-24T05:14:53.308Z,95915.13
2022-12-24T05:17:50.201Z,95926.91
2022-12-24T05:20:48.149Z,95932.53
2022-12-24T05:24:04.071Z,95950.41
2022-12-24T05:27:00.871Z,95957.97
2022-12-24T05:29:57.713Z,95958.13
2022-12-24T05:32:54.532Z,95958.41
2022-12-24T05:35:52.878Z,95961.06
2022-12-24T05:38:50.475Z,95969.38
2022-12-24T05:41:47.756Z,95974.38
2022-12-24T05:44:44.607Z,95962.09
2022-12-24T05:47:43.724Z,95946.19
2022-12-24T05:50:40.778Z,95947.16
2022-12-24T05:53:38.369Z,95956.53
2022-12-24T05:56:35.312Z,95959.91
2022-12-24T05:59:32.245Z,95962.94
2022-12-24T06:02:29.156Z,95975.56
2022-12-24T06:05:26.224Z,95964.28
2022-12-24T06:08:23.105Z,95968.97
2022-12-24T06:11:24.668Z,95961.44
2022-12-24T06:14:21.502Z,95963.44
2022-12-24T06:17:18.653Z,95962.63
2022-12-24T06:20:15.893Z,95964.44
2022-12-24T06:23:13.250Z,95965.69
2022-12-24T06:26:16.031Z,95963.25
2022-12-24T06:29:12.974Z,95961.97
2022-12-24T06:32:10.030Z,95964.03
2022-12-24T06:35:07.243Z,95965.91
2022-12-24T06:38:04.087Z,95966.00
2022-12-24T06:41:04.946Z,95969.94
2022-12-24T06:44:01.735Z,95971.94
2022-12-24T06:46:58.673Z,95973.94
2022-12-24T06:49:55.548Z,95982.63
2022-12-24T06:52:52.643Z,95981.25
2022-12-24T06:55:49.637Z,95990.00
2022-12-24T06:58:49.445Z,95993.41
2022-12-24T07:01:46.366Z,96001.06
2022-12-24T07:04:43.222Z,96009.72
2022-12-24T07:07:43.444Z,96009.91
2022-12-24T07:10:40.256Z,96013.72
2022-12-24T07:13:37.290Z,96017.41
2022-12-24T07:16:34.324Z,96013.66
2022-12-24T07:19:31.437Z,96022.53
2022-12-24T07:22:28.270Z,96016.66
2022-12-24T07:25:25.350Z,96016.59
2022-12-24T07:28:27.592Z,96031.91
2022-12-24T07:31:24.845Z,96033.25
2022-12-24T07:34:21.748Z,96042.25
2022-12-24T07:37:18.568Z,96039.31
2022-12-24T07:40:15.444Z,96044.44
2022-12-24T07:43:12.254Z,96046.19
2022-12-24T07:46:09.101Z,96041.97
2022-12-24T07:49:06.104Z,96051.09
2022-12-24T07:52:04.167Z,96060.88
2022-12-24T07:55:01.014Z,96069.44
2022-12-24T07:57:57.865Z,96081.72
2022-12-24T08:00:59.693Z,96085.97
2022-12-24T08:03:56.802Z,96097.25
2022-12-24T08:06:53.666Z,96092.72
2022-12-24T08:09:50.910Z,96103.16
2022-12-24T08:12:48.336Z,96103.25
2022-12-24T08:15:45.945Z,96112.06
2022-12-24T08:18:43.208Z,96105.53
2022-12-24T08:21:40.224Z,96115.31
2022-12-24T08:24:37.624Z,96117.59
2022-12-24T08:27:34.622Z,96115.38
2022-12-24T08:30:31.480Z,96118.91
2022-12-24T08:33:28.485Z,96129.75
2022-12-24T08:36:25.283Z,96123.22
2022-12-24T08:39:22.281Z,96131.13
2022-12-24T08:42:19.623Z,96116.75
2022-12-24T08:45:16.767Z,96115.66
2022-12-24T08:48:13.578Z,96124.38
2022-12-24T08:51:12.203Z,96130.06
2022-12-24T08:54:09.021Z,96132.63
2022-12-24T08:57:06.145Z,96133.06
2022-12-24T09:00:07.895Z,96141.13
2022-12-24T09:03:04.793Z,96144.34
2022-12-24T09:06:04.776Z,96142.78
2022-12-24T09:09:02.662Z,96149.16
2022-12-24T09:11:59.814Z,96166.03
2022-12-24T09:15:03.003Z,96173.72
2022-12-24T09:18:01.986Z,96185.16
2022-12-24T09:21:05.229Z,96196.09
2022-12-24T09:24:04.612Z,96196.72
2022-12-24T09:27:02.619Z,96189.47
2022-12-24T09:29:59.447Z,96193.31
2022-12-24T09:32:56.356Z,96196.28
2022-12-24T09:35:53.458Z,96191.75
2022-12-24T09:38:50.864Z,96195.44
2022-12-24T09:42:05.603Z,96193.59
2022-12-24T09:45:34.944Z,96198.59
2022-12-24T09:48:36.636Z,96191.38
2022-12-24T09:51:51.101Z,96193.31
2022-12-24T09:55:02.023Z,96209.72
2022-12-24T09:58:00.840Z,96205.28
2022-12-24T10:00:58.108Z,96214.75
2022-12-24T10:03:55.109Z,96221.97
2022-12-24T10:07:19.271Z,96226.22
2022-12-24T10:10:46.555Z,96239.03
2022-12-24T10:14:08.175Z,96241.38
2022-12-24T10:17:38.752Z,96247.88
2022-12-24T10:21:02.247Z,96240.25
2022-12-24T10:24:11.421Z,96242.13
2022-12-24T10:27:18.041Z,96244.06
2022-12-24T10:30:17.655Z,96244.50
2022-12-24T10:33:22.574Z,96247.94
2022-12-24T10:36:27.020Z,96249.03
2022-12-24T10:39:26.266Z,96243.53
2022-12-24T10:42:35.104Z,96245.91
2022-12-24T10:45:41.546Z,96238.16
2022-12-24T10:48:58.943Z,96237.22
2022-12-24T10:52:02.717Z,96243.25
2022-12-24T10:55:16.011Z,96259.22
2022-12-24T10:58:20.250Z,96255.78
2022-12-24T11:01:17.668Z,96258.88
2022-12-24T11:04:22.421Z,96261.41
2022-12-24T11:07:23.515Z,96266.13
2022-12-24T11:10:24.284Z,96270.25
2022-12-24T11:13:41.927Z,96270.03
2022-12-24T11:16:38.850Z,96270.13
2022-12-24T11:19:40.055Z,96267.47
2022-12-24T11:22:37.011Z,96274.72
2022-12-24T11:25:38.589Z,96278.91
2022-12-24T11:28:35.416Z,96278.81
2022-12-24T11:31:35.740Z,96275.44
2022-12-24T11:34:33.072Z,96289.63
2022-12-24T11:37:29.951Z,96288.63
2022-12-24T11:40:37.400Z,96291.28
2022-12-24T11:43:45.788Z,96286.81
2022-12-24T11:46:52.179Z,96282.34
2022-12-24T11:49:49.167Z,96295.88
2022-12-24T11:52:52.385Z,96295.09
2022-12-24T11:55:55.693Z,96301.00
2022-12-24T11:58:59.156Z,96285.72
2022-12-24T12:02:22.140Z,96304.66
2022-12-24T12:05:27.609Z,96296.97
2022-12-24T12:08:27.307Z,96288.13
2022-12-24T12:11:27.330Z,96294.75
2022-12-24T12:14:46.969Z,96291.94
2022-12-24T12:18:13.649Z,96285.66
2022-12-24T12:21:23.412Z,96297.84
2022-12-24T12:24:36.206Z,96289.56
2022-12-24T12:28:33.718Z,96312.34
2022-12-24T12:31:42.472Z,96308.91
2022-12-24T12:34:40.328Z,96306.53
2022-12-24T12:37:47.385Z,96309.47
2022-12-24T12:41:25.690Z,96303.00
2022-12-24T12:44:42.096Z,96299.38
2022-12-24T12:48:10.579Z,96287.78
2022-12-24T12:51:27.998Z,96288.47
2022-12-24T12:54:53.535Z,96294.97
2022-12-24T12:57:52.183Z,96296.34
2022-12-24T13:00:58.992Z,96288.94
2022-12-24T13:04:26.428Z,96292.19
2022-12-24T13:07:53.464Z,96291.06
2022-12-24T13:11:10.079Z,96296.19
2022-12-24T13:14:51.409Z,96296.84
2022-12-24T13:18:19.835Z,96293.06
2022-12-24T13:21:21.735Z,96292.03
2022-12-24T13:24:26.122Z,96306.69
2022-12-24T13:27:35.193Z,96309.41
2022-12-24T13:30:40.601Z,96294.63
2022-12-24T13:33:37.306Z,96304.19
2022-12-24T13:37:05.157Z,96307.34
2022-12-24T13:40:08.474Z,96306.72
2022-12-24T13:43:05.581Z,96316.22
2022-12-24T13:46:03.177Z,96320.34
2022-12-24T13:49:41.679Z,96326.38
2022-12-24T13:52:42.548Z,96314.28
2022-12-24T13:56:14.141Z,96324.19
2022-12-24T13:59:40.326Z,96324.66
2022-12-24T14:02:47.227Z,96331.56
2022-12-24T14:05:43.960Z,96333.31
2022-12-24T14:08:45.888Z,96332.63
2022-12-24T14:12:01.897Z,96345.25
2022-12-24T14:14:58.965Z,96329.94
2022-12-24T14:17:56.059Z,96353.50
2022-12-24T14:20:57.529Z,96355.13
2022-12-24T14:24:04.331Z,96360.59
2022-12-24T14:27:17.730Z,96346.34
2022-12-24T14:30:25.506Z,96360.84
2022-12-24T14:33:34.473Z,96357.66
2022-12-24T14:36:32.187Z,96357.78
2022-12-24T14:39:37.564Z,96360.53
2022-12-24T14:42:47.391Z,96372.06
2022-12-24T14:45:51.727Z,96380.78
2022-12-24T14:49:16.657Z,96380.56
2022-12-24T14:53:04.619Z,96382.13
2022-12-24T14:56:14.879Z,96392.94
2022-12-24T14:59:20.017Z,96395.38
2022-12-24T15:02:50.490Z,96393.16
2022-12-24T15:05:58.339Z,96394.22
2022-12-24T15:08:55.686Z,96396.31
2022-12-24T15:11:56.136Z,96393.00
2022-12-24T15:14:53.030Z,96386.13
2022-12-24T15:17:50.297Z,96390.13
2022-12-24T15:20:51.827Z,96391.28
2022-12-24T15:23:51.781Z,96405.41
2022-12-24T15:26:48.564Z,96402.19
2022-12-24T15:29:48.904Z,96407.44
2022-12-24T15:32:45.896Z,96411.59
2022-12-24T15:35:54.380Z,96421.13
2022-12-24T15:38:54.958Z,96426.59
2022-12-24T15:42:10.120Z,96432.69
2022-12-24T15:45:30.156Z,96435.47
2022-12-24T15:48:29.305Z,96441.69
2022-12-24T15:51:40.183Z,96433.47
2022-12-24T15:54:37.266Z,96435.66
2022-12-24T15:57:34.518Z,96436.06
2022-12-24T16:00:32.298Z,96442.13
2022-12-24T16:03:29.264Z,96438.53
2022-12-24T16:06:28.279Z,96439.28
2022-12-24T16:09:45.752Z,96437.50
2022-12-24T16:12:42.634Z,96450.03
2022-12-24T16:15:48.728Z,96449.91
2022-12-24T16:18:56.402Z,96455.84
2022-12-24T16:21:57.601Z,96456.34
2022-12-24T16:24:55.686Z,96459.63
2022-12-24T16:27:53.708Z,96454.09
2022-12-24T16:30:50.661Z,96460.44
2022-12-24T16:33:47.704Z,96472.31
2022-12-24T16:36:46.307Z,96475.53
2022-12-24T16:39:45.035Z,96479.47
2022-12-24T16:43:00.212Z,96485.16
2022-12-24T16:46:06.423Z,96485.63
2022-12-24T16:49:03.285Z,96481.44
2022-12-24T16:52:00.112Z,96488.03
2022-12-24T16:54:57.688Z,96491.91
2022-12-24T16:57:54.536Z,96493.91
2022-12-24T17:00:51.364Z,96492.03
2022-12-24T17:03:48.181Z,96506.69
2022-12-24T17:06:45.712Z,96504.59
2022-12-24T17:09:42.944Z,96512.13
2022-12-24T17:12:39.790Z,96516.06
2022-12-24T17:15:36.677Z,96514.19
2022-12-24T17:18:33.613Z,96512.41
2022-12-24T17:21:30.568Z,96507.56
2022-12-24T17:24:27.424Z,96515.25
2022-12-24T17:27:24.644Z,96518.53
2022-12-24T17:30:21.447Z,96520.25
2022-12-24T17:33:18.356Z,96519.50
2022-12-24T17:36:15.279Z,96526.78
2022-12-24T17:39:12.088Z,96528.69
2022-12-24T17:42:08.890Z,96530.91
2022-12-24T17:45:06.439Z,96534.59
2022-12-24T17:48:03.313Z,96530.34
2022-12-24T17:51:06.117Z,96540.19
2022-12-24T17:54:03.212Z,96539.91
2022-12-24T17:57:00.286Z,96546.31
2022-12-24T17:59:57.485Z,96539.13
2022-12-24T18:02:54.352Z,96537.03
2022-12-24T18:05:52.015Z,96539.72
2022-12-24T18:08:48.859Z,96541.84
2022-12-24T18:11:45.685Z,96544.31
2022-12-24T18:14:43.210Z,96541.41
2022-12-24T18:17:40.005Z,96539.88
2022-12-24T18:20:42.678Z,96536.13
2022-12-24T18:23:45.671Z,96533.34
2022-12-24T18:26:45.611Z,96539.94
2022-12-24T18:29:43.411Z,96532.97
2022-12-24T18:32:40.251Z,96546.56
2022-12-24T18:35:37.042Z,96536.50
2022-12-24T18:38:34.192Z,96532.69
2022-12-24T18:41:31.078Z,96536.25
2022-12-24T18:44:27.874Z,96528.56
2022-12-24T18:47:24.668Z,96536.97
2022-12-24T18:50:21.499Z,96534.47
2022-12-24T18:53:18.323Z,96535.25
2022-12-24T18:56:22.208Z,96532.59
2022-12-24T18:59:19.178Z,96537.84
2022-12-24T19:02:16.102Z,96541.06
2022-12-24T19:05:15.156Z,96539.72
2022-12-24T19:11:32.285Z,96550.59
2022-12-24T19:14:29.119Z,96559.09
2022-12-24T19:17:25.968Z,96561.25
2022-12-24T19:20:22.770Z,96571.91
2022-12-24T19:23:19.613Z,96567.88
2022-12-24T19:26:18.271Z,96583.56
2022-12-24T19:29:15.128Z,96594.22
2022-12-24T19:32:12.134Z,96580.47
2022-12-24T19:35:09.348Z,96582.00
2022-12-24T19:38:06.197Z,96585.19
2022-12-24T19:41:13.779Z,96574.84
2022-12-24T19:44:11.534Z,96589.72
2022-12-24T19:47:08.315Z,96593.47
2022-12-24T19:50:06.031Z,96597.50
2022-12-24T19:53:02.914Z,96598.00
2022-12-24T19:56:00.021Z,96595.84
2022-12-24T19:58:58.274Z,96611.34
2022-12-24T20:01:56.190Z,96611.91
2022-12-24T20:04:53.242Z,96605.53
2022-12-24T20:07:50.059Z,96608.19
2022-12-24T20:10:47.153Z,96604.44
2022-12-24T20:13:44.576Z,96601.50
2022-12-24T20:16:41.420Z,96603.38
2022-12-24T20:19:38.643Z,96623.56
2022-12-24T20:22:35.469Z,96632.63
2022-12-24T20:25:37.337Z,96612.41
2022-12-24T20:28:36.578Z,96613.50
2022-12-24T20:31:34.059Z,96621.19
2022-12-24T20:34:30.889Z,96627.81
2022-12-24T20:37:27.689Z,96633.41
2022-12-24T20:40:24.485Z,96635.53
2022-12-24T20:43:24.417Z,96638.16
2022-12-24T20:46:23.969Z,96623.28
2022-12-24T20:49:21.044Z,96629.72
2022-12-24T20:52:17.844Z,96630.47
2022-12-24T20:55:14.686Z,96619.78
2022-12-24T20:58:17.849Z,96619.78
2022-12-24T21:01:21.732Z,96624.50
2022-12-24T21:04:19.003Z,96640.69
2022-12-24T21:07:15.850Z,96636.44
2022-12-24T21:10:14.836Z,96642.56
2022-12-24T21:13:11.644Z,96652.91
2022-12-24T21:16:08.997Z,96640.41
2022-12-24T21:19:08.162Z,96634.00
2022-12-24T21:22:04.952Z,96644.63
2022-12-24T21:25:01.837Z,96646.78
2022-12-24T21:27:58.703Z,96649.97
2022-12-24T21:30:55.745Z,96656.94
2022-12-24T21:33:52.697Z,96644.44
2022-12-24T21:36:49.499Z,96647.09
2022-12-24T21:39:46.336Z,96657.44
2022-12-24T21:42:43.134Z,96657.22
2022-12-24T21:45:41.581Z,96628.22
2022-12-24T21:48:57.240Z,96642.84
2022-12-24T21:51:54.084Z,96651.66
2022-12-24T21:54:50.906Z,96658.56
2022-12-24T21:57:53.460Z,96652.47
2022-12-24T22:00:50.526Z,96660.44
2022-12-24T22:03:50.637Z,96663.91
2022-12-24T22:07:06.260Z,96659.16
2022-12-24T22:10:22.208Z,96644.53
2022-12-24T22:13:19.361Z,96654.06
2022-12-24T22:16:16.247Z,96654.88
2022-12-24T22:19:13.129Z,96641.56
2022-12-24T22:22:10.118Z,96638.38
2022-12-24T22:25:07.298Z,96648.75
2022-12-24T22:28:04.831Z,96649.50
2022-12-24T22:31:01.699Z,96642.63
2022-12-24T22:33:59.586Z,96663.63
2022-12-24T22:36:56.381Z,96674.81
2022-12-24T22:39:53.184Z,96655.38
2022-12-24T22:42:49.999Z,96658.31
2022-12-24T22:45:46.849Z,96666.56
2022-12-24T22:48:45.562Z,96676.94
2022-12-24T22:51:42.421Z,96674.28
2022-12-24T22:54:39.222Z,96670.28
2022-12-24T22:57:36.001Z,96658.31
2022-12-24T23:00:45.188Z,96665.50
2022-12-24T23:03:42.068Z,96668.72
2022-12-24T23:06:40.272Z,96666.84
2022-12-24T23:09:37.788Z,96675.34
2022-12-24T23:12:53.028Z,96695.03
2022-12-24T23:15:50.050Z,96675.63
2022-12-24T23:18:46.901Z,96681.47
2022-12-24T23:21:43.801Z,96690.53
2022-12-24T23:24:41.315Z,96689.75
2022-12-24T23:27:38.647Z,96679.06
2022-12-24T23:30:35.603Z,96679.13
2022-12-24T23:33:33.131Z,96678.59
2022-12-24T23:36:30.173Z,96675.34
2022-12-24T23:39:26.972Z,96670.06
2022-12-24T23:42:23.800Z,96666.31
2022-12-24T23:45:20.653Z,96667.94
2022-12-24T23:48:17.798Z,96661.84
2022-12-24T23:51:23.518Z,96666.34
2022-12-24T23:54:20.380Z,96672.72
2022-12-24T23:57:17.264Z,96678.31
